Terminal Aerodrome Forecast
Issued by NWS Pocatello, ID

Home | Current Version | Previous Version | Text Only | Print | Product List | Glossary On
Versions: 1 2 3 4 5 6 7 8 9 10 11 12 13 14 15 16 17 18 19 20 21 22
943
FTUS45 KPIH 281004 AAA
TAFBYI
TAF AMD
KBYI 281004Z 2810/2906 28015KT P6SM VCSH BKN060 BKN100
      TEMPO 2810/2813 2SM -SHSN SCT008 BKN020 OVC060
     FM281630 28015G25KT P6SM SCT015 SCT070
     FM282100 31015G25KT P6SM VCSH BKN060
     FM290100 31008KT P6SM BKN080=

USA.gov is the U.S. government's official web portal to all federal, state and local government web resources and services.